Latest Weather Observations for McArthur River Mine

IDD60801

Issued at 5:35 am CST Monday 22 September 2014 (issued every 30 minutes, with the page automatically refreshed every 10 minutes)

About weather observations | Map of weather stations | Latest weather observations for NT | Other Formats
Station Details ID: 014704 Name: MCARTHUR RIVER MINE AIRPORT Lat: -16.44 Lon: 136.08 Height: 40.0 m
Data from the previous 72 hours. | See also: Recent months at McArthur River Mine
Date/Time
CST
Temp
°C
App
Temp
°C
Dew
Point
Rel
Hum
%
Delta-T
°C
Wind Press
QNH
hPa
Press
MSL
hPa
Rain
since 9 am
mm
Dir
 
Spd
km/h
Gust
km/h
Spd
kts
Gust
kts
22/05:32am 18.4 15.2 -0.4 28 8.1 W 6 9 3 5 1015.5 - 0.0
22/05:30am 18.5 15.0 -1.3 26 8.4 W 7 9 4 5 1015.5 - 0.0
22/05:00am 21.6 17.4 -3.7 18 10.5 S 9 11 5 6 1015.1 - 0.0
22/04:30am 22.6 18.0 -3.7 17 11.1 S 11 15 6 8 1014.7 - 0.0
22/04:00am 23.7 18.4 -3.6 16 11.6 SSE 15 20 8 11 1014.6 - 0.0
22/03:30am 21.9 18.6 6.6 37 7.8 S 13 22 7 12 1014.5 - 0.0
22/03:00am 17.7 17.8 12.6 72 2.8 WSW 4 7 2 4 1014.7 1014.5 0.0
22/02:30am 18.9 19.2 13.5 71 3.1 SSW 4 9 2 5 1014.9 - 0.0
22/02:00am 19.7 20.2 13.9 69 3.3 S 4 7 2 4 1014.9 - 0.0
22/01:30am 20.2 21.4 14.8 71 3.2 S 2 6 1 3 1015.3 - 0.0
22/01:00am 20.2 20.8 14.3 69 3.4 NE 4 7 2 4 1015.5 - 0.0
22/12:30am 21.4 22.3 16.1 72 3.2 SE 6 7 3 4 1015.7 - 0.0
22/12:09am 22.1 22.8 16.1 69 3.6 SSE 7 9 4 5 1016.0 - 0.0
22/12:00am 22.1 22.4 16.1 69 3.6 SSE 9 11 5 6 1016.0 1015.9 0.0
 
Date/Time
CST
Temp
°C
App
Temp
°C
Dew
Point
Rel
Hum
%
Delta-T
°C
Wind Press
QNH
hPa
Press
MSL
hPa
Rain
since 9 am
mm
Dir
 
Spd
km/h
Gust
km/h
Spd
kts
Gust
kts
21/11:58pm 22.0 22.4 16.3 70 3.5 SSE 9 11 5 6 1016.0 - 0.0
21/11:30pm 22.3 22.7 13.6 58 5.0 SSE 4 6 2 3 1016.0 - 0.0
21/11:00pm 23.5 24.7 14.8 58 5.2 E 2 6 1 3 1015.7 - 0.0
21/10:30pm 24.2 24.5 14.9 56 5.6 E 7 9 4 5 1015.7 - 0.0
21/10:00pm 24.9 24.9 14.1 51 6.4 E 7 9 4 5 1015.7 - 0.0
21/09:30pm 26.0 25.5 13.8 47 7.2 ENE 9 15 5 8 1015.6 - 0.0
21/09:01pm 26.8 25.7 12.1 40 8.5 NE 9 15 5 8 1015.0 - 0.0
21/09:00pm 26.9 25.8 11.8 39 8.7 NE 9 15 5 8 1015.0 1014.8 0.0
21/08:47pm 27.2 25.6 11.7 38 8.9 NE 11 17 6 9 1014.8 - 0.0
21/08:30pm 27.6 25.3 10.3 34 9.7 NE 13 22 7 12 1014.6 - 0.0
21/08:00pm 28.6 25.1 8.8 29 10.9 NNE 17 22 9 12 1014.2 - 0.0
21/07:30pm 29.3 25.9 7.8 26 11.7 NE 15 20 8 11 1013.6 - 0.0
21/07:00pm 30.1 26.4 7.9 25 12.1 NE 17 26 9 14 1013.2 - 0.0
21/06:30pm 31.2 27.6 8.2 24 12.7 NNE 17 26 9 14 1012.8 - 0.0
21/06:00pm 32.8 29.0 7.6 21 13.9 NNE 17 26 9 14 1012.3 1012.1 0.0
21/05:30pm 35.0 30.8 -4.1 8 18.1 N 9 13 5 7 1011.8 - 0.0
21/05:00pm 35.5 31.3 -3.8 8 18.3 NE 9 15 5 8 1011.6 - 0.0
21/04:30pm 35.6 31.0 -3.7 8 18.4 SSE 11 15 6 8 1011.7 - 0.0
21/04:00pm 35.9 31.7 -3.5 8 18.5 NNE 9 20 5 11 1011.8 - 0.0
21/03:30pm 36.1 32.0 -3.3 8 18.6 E 9 15 5 8 1011.7 - 0.0
21/03:00pm 35.2 31.0 -4.0 8 18.2 SSE 9 19 5 10 1011.7 1011.5 0.0
21/02:30pm 35.6 31.0 -3.7 8 18.4 NNE 11 19 6 10 1012.0 - 0.0
21/02:00pm 35.1 31.3 -4.1 8 18.1 SSE 7 15 4 8 1012.5 - 0.0
21/01:30pm 34.6 30.3 -4.4 8 17.9 NE 9 15 5 8 1013.2 - 0.0
21/01:00pm 34.1 29.4 -4.8 8 17.7 S 11 17 6 9 1013.8 - 0.0
21/12:30pm 34.4 29.5 -3.0 9 17.5 S 13 20 7 11 1014.3 - 0.0
21/12:00pm 33.8 28.1 -3.5 9 17.3 SE 17 32 9 17 1014.8 1014.6 0.0
21/11:30am 33.1 28.3 -2.6 10 16.7 ESE 13 20 7 11 1015.5 - 0.0
21/11:00am 31.7 25.8 -2.3 11 15.8 SSE 19 24 10 13 1016.3 - 0.0
21/10:30am 30.9 25.4 -1.8 12 15.3 SSE 17 26 9 14 1016.6 - 0.0
21/10:00am 29.6 24.2 -1.7 13 14.5 SSE 17 24 9 13 1016.7 - 0.0
21/09:30am 29.3 24.6 0.9 16 13.7 S 15 20 8 11 1016.8 - 0.0
21/09:00am 27.5 21.8 0.3 17 12.8 S 20 28 11 15 1017.1 1017.0 0.0
21/08:30am 24.4 22.6 7.1 33 9.0 SW 6 7 3 4 1017.0 - 0.0
21/08:00am 22.0 20.3 7.4 39 7.6 SSW 6 7 3 4 1016.7 - 0.0
21/07:30am 19.6 18.2 8.9 50 5.6 W 6 9 3 5 1016.5 - 0.0
21/07:00am 17.2 15.8 8.9 58 4.3 NNW 6 9 3 5 1016.0 - 0.0
21/06:30am 17.2 16.5 8.4 56 4.5 NNW 2 7 1 4 1015.5 - 0.0
21/06:14am 17.9 17.2 8.7 55 4.8 NW 2 9 1 5 1015.0 - 0.0
21/06:03am 18.9 16.9 8.6 51 5.4 SW 9 19 5 10 1014.9 - 0.0
21/06:00am 19.4 16.7 9.0 51 5.5 SW 13 19 7 10 1015.0 1014.8 0.0
21/05:30am 17.0 16.6 8.2 56 4.5 CALM 0 0 0 0 1013.5 - 0.0
21/05:00am 17.5 16.2 9.2 58 4.3 WSW 6 11 3 6 1013.3 - 0.0
21/04:30am 17.5 17.2 8.6 56 4.6 CALM 0 0 0 0 1012.7 - 0.0
21/04:00am 18.4 18.2 8.9 54 5.0 CALM 0 0 0 0 1012.4 - 0.0
21/03:30am 18.2 17.9 8.5 53 5.0 CALM 0 0 0 0 1012.6 - 0.0
21/03:02am 18.5 18.2 8.7 53 5.1 CALM 0 0 0 0 1012.7 - 0.0
21/03:00am 18.5 18.2 8.7 53 5.1 CALM 0 0 0 0 1012.8 1012.6 0.0
21/02:49am 18.3 17.9 8.3 52 5.2 CALM 0 0 0 0 1012.8 - 0.0
21/02:30am 18.6 18.3 8.6 52 5.2 CALM 0 4 0 2 1012.9 - 0.0
21/02:00am 18.5 16.3 7.9 50 5.4 WNW 9 9 5 5 1013.1 - 0.0
21/01:30am 19.9 17.3 7.9 46 6.2 SW 11 13 6 7 1013.4 - 0.0
21/01:00am 19.4 18.8 7.2 45 6.2 CALM 0 7 0 4 1013.5 - 0.0
21/12:30am 20.9 20.0 7.9 43 6.8 ESE 2 6 1 3 1013.6 - 0.0
21/12:00am 21.8 21.4 8.3 42 7.1 CALM 0 0 0 0 1014.0 1013.8 0.0
 
Date/Time
CST
Temp
°C
App
Temp
°C
Dew
Point
Rel
Hum
%
Delta-T
°C
Wind Press
QNH
hPa
Press
MSL
hPa
Rain
since 9 am
mm
Dir
 
Spd
km/h
Gust
km/h
Spd
kts
Gust
kts
20/11:30pm 22.5 21.1 7.1 37 8.0 E 4 6 2 3 1014.1 - 0.0
20/11:00pm 24.4 22.5 7.5 34 8.9 N 7 7 4 4 1014.2 - 0.0
20/10:30pm 25.1 22.9 7.7 33 9.2 N 9 9 5 5 1013.9 - 0.0
20/10:00pm 26.1 23.7 7.2 30 10.0 N 9 11 5 6 1013.8 - 0.0
20/09:30pm 26.0 23.9 5.6 27 10.5 N 6 9 3 5 1013.7 - 0.0
20/09:00pm 27.2 24.9 5.5 25 11.2 NNE 7 9 4 5 1013.5 1013.3 0.0
20/08:30pm 28.4 25.5 6.5 25 11.6 NNE 11 15 6 8 1013.3 - 0.0
20/08:00pm 29.5 26.7 6.8 24 12.2 NNE 11 20 6 11 1013.1 - 0.0
20/07:30pm 30.4 26.2 1.8 16 14.1 NNE 13 17 7 9 1012.7 - 0.0
20/07:00pm 31.4 26.0 -1.4 12 15.5 NE 17 24 9 13 1012.3 - 0.0
20/06:30pm 32.0 26.7 -0.9 12 15.7 NNE 17 24 9 13 1011.9 - 0.0
20/06:00pm 33.4 27.7 -1.0 11 16.6 NNE 19 30 10 16 1011.5 1011.3 0.0
20/05:30pm 34.4 28.2 -4.6 8 17.8 NNE 19 28 10 15 1011.1 - 0.0
20/05:00pm 36.0 29.8 -3.4 8 18.6 NNE 20 30 11 16 1010.7 - 0.0
20/04:30pm 36.3 30.5 -5.0 7 19.0 NNE 17 26 9 14 1010.4 - 0.0
20/04:00pm 36.9 32.4 -6.5 6 19.6 E 9 15 5 8 1010.4 - 0.0
20/03:30pm 37.5 31.6 -6.1 6 19.9 ENE 17 30 9 16 1010.6 - 0.0
20/03:00pm 37.7 31.2 -6.0 6 20.0 NE 20 30 11 16 1010.7 1010.5 0.0
20/02:30pm 38.5 32.4 -7.8 5 20.7 E 17 26 9 14 1011.2 - 0.0
20/02:00pm 37.3 31.3 -6.3 6 19.8 NNE 17 30 9 16 1011.6 - 0.0
20/01:30pm 37.3 32.9 -6.3 6 19.8 E 9 15 5 8 1012.3 - 0.0
20/01:00pm 38.0 32.5 -5.8 6 20.2 E 15 28 8 15 1012.8 - 0.0
20/12:30pm 37.0 30.6 -6.5 6 19.7 NE 19 28 10 15 1013.5 - 0.0
20/12:00pm 37.1 30.7 -6.4 6 19.7 NE 19 28 10 15 1014.1 1013.9 0.0
20/11:30am 36.3 30.5 -5.0 7 19.0 E 17 24 9 13 1014.7 - 0.0
20/11:00am 35.3 29.6 -3.9 8 18.2 E 17 26 9 14 1015.2 - 0.0
20/10:30am 34.7 28.5 -4.4 8 18.0 E 19 28 10 15 1015.6 - 0.0
20/10:00am 32.0 29.3 3.9 17 14.5 ESE 7 15 4 8 1016.2 - 0.0
20/09:30am 29.1 28.2 7.6 26 11.6 S 2 7 1 4 1016.4 - 0.0
20/09:00am 26.6 25.1 8.6 32 9.8 SSW 6 9 3 5 1016.4 1016.3 0.0
20/08:30am 24.3 23.8 9.5 39 8.1 WSW 2 6 1 3 1016.3 - 0.0
20/08:00am 21.1 20.1 10.3 50 5.9 SW 6 7 3 4 1016.3 - 0.0
20/07:30am 18.5 17.8 10.1 58 4.5 WSW 4 7 2 4 1016.0 - 0.0
20/07:00am 15.5 15.0 9.4 67 3.2 SW 2 6 1 3 1015.8 - 0.0
20/06:30am 14.4 14.1 8.8 69 2.8 CALM 0 0 0 0 1015.4 - 0.0
20/06:00am 14.9 14.5 9.7 71 2.7 S 2 6 1 3 1015.1 1014.9 0.0
20/05:30am 15.2 14.5 10.0 71 2.7 S 4 6 2 3 1014.9 - 0.0
20/05:00am 15.2 15.0 8.9 66 3.2 CALM 0 0 0 0 1014.6 - 0.0
20/04:30am 15.9 15.7 9.1 64 3.5 CALM 0 0 0 0 1014.3 - 0.0
20/04:00am 16.4 16.2 9.1 62 3.8 CALM 0 0 0 0 1014.4 - 0.0
20/03:30am 17.0 16.2 9.7 62 3.8 W 4 6 2 3 1014.5 - 0.0
20/03:00am 17.1 15.7 9.5 61 4.0 WSW 7 9 4 5 1014.7 1014.5 0.0
20/02:30am 16.9 15.4 9.3 61 4.0 W 7 9 4 5 1014.7 - 0.0
20/02:16am 17.2 15.8 9.4 60 4.1 W 7 9 4 5 1014.9 - 0.0
20/02:00am 17.3 15.9 9.7 61 4.0 WSW 7 9 4 5 1014.9 - 0.0
20/01:59am 17.2 15.8 9.4 60 4.1 WSW 7 9 4 5 1014.9 - 0.0
20/01:30am 18.0 16.5 8.6 54 4.9 WSW 6 7 3 4 1015.2 - 0.0
20/01:00am 18.9 17.7 9.4 54 5.0 SW 6 7 3 4 1015.4 - 0.0
20/12:30am 19.9 18.6 9.2 50 5.7 SSW 6 7 3 4 1015.6 - 0.0
20/12:00am 20.5 19.7 9.7 50 5.8 SW 4 6 2 3 1015.6 1015.5 0.0
 
Date/Time
CST
Temp
°C
App
Temp
°C
Dew
Point
Rel
Hum
%
Delta-T
°C
Wind Press
QNH
hPa
Press
MSL
hPa
Rain
since 9 am
mm
Dir
 
Spd
km/h
Gust
km/h
Spd
kts
Gust
kts
19/11:59pm 20.5 19.3 9.7 50 5.8 SW 6 6 3 3 1015.6 - 0.0
19/11:30pm 21.3 20.6 9.9 48 6.2 N 4 7 2 4 1015.7 - 0.0
19/11:00pm 23.3 22.5 11.0 46 6.9 NNE 6 7 3 4 1015.7 - 0.0
19/10:30pm 24.1 23.1 10.4 42 7.6 NE 6 7 3 4 1015.5 - 0.0
19/10:00pm 25.1 24.0 9.8 38 8.4 NE 6 7 3 4 1015.6 - 0.0
19/09:30pm 26.3 24.2 9.6 35 9.2 NE 11 15 6 8 1015.5 - 0.0
19/09:00pm 27.3 23.8 7.2 28 10.7 NE 15 22 8 12 1015.3 1015.1 0.0
19/08:30pm 27.7 24.5 7.0 27 11.0 NE 13 19 7 10 1015.2 - 0.0
19/08:00pm 28.5 24.6 5.4 23 12.0 NE 15 24 8 13 1014.7 - 0.0
19/07:30pm 29.3 24.5 2.5 18 13.3 NNE 17 26 9 14 1014.1 - 0.0
19/07:00pm 30.0 24.4 1.5 16 14.0 NNE 20 33 11 18 1013.6 - 0.0
19/06:30pm 30.8 25.8 1.2 15 14.5 N 17 30 9 16 1013.1 - 0.0
19/06:00pm 32.5 26.6 -0.5 12 15.9 N 20 33 11 18 1012.5 1012.3 0.0
19/05:30pm 34.4 28.6 -1.6 10 17.3 NNE 19 28 10 15 1011.9 - 0.0
19/05:00pm 36.4 30.4 -6.9 6 19.4 ESE 17 22 9 12 1011.6 - 0.0
19/04:30pm 37.1 31.1 -6.4 6 19.7 ESE 17 24 9 13 1011.5 - 0.0
19/04:00pm 37.3 31.0 -6.3 6 19.8 E 19 26 10 14 1011.4 - 0.0
19/03:30pm 37.7 32.7 -3.9 7 19.7 NE 13 20 7 11 1011.5 - 0.0
19/03:00pm 36.7 31.7 -4.7 7 19.2 NNE 13 17 7 9 1011.7 1011.5 0.0
19/02:30pm 36.9 30.7 -4.5 7 19.3 E 19 24 10 13 1012.2 - 0.0
19/02:00pm 36.2 32.3 -5.0 7 19.0 E 7 15 4 8 1012.8 - 0.0
19/01:30pm 36.0 30.3 -3.4 8 18.6 ENE 17 28 9 15 1013.4 - 0.0
19/01:00pm 36.2 30.9 -3.3 8 18.7 SE 15 24 8 13 1014.0 - 0.0
19/12:30pm 35.7 30.8 -0.6 10 17.9 SE 15 24 8 13 1014.7 - 0.0
19/12:00pm 35.4 30.3 -2.3 9 18.0 E 15 26 8 14 1015.2 1015.0 0.0
19/11:30am 35.0 30.8 1.4 12 17.0 E 13 24 7 13 1015.8 - 0.0
19/11:00am 34.3 29.6 3.0 14 16.2 ESE 17 28 9 15 1016.4 - 0.0
19/10:30am 33.4 28.5 2.3 14 15.8 E 17 26 9 14 1016.9 - 0.0
19/10:00am 31.7 27.8 8.7 24 12.9 E 19 24 10 13 1017.3 - 0.0
19/09:30am 28.3 28.1 13.0 39 9.0 S 6 9 3 5 1017.5 - 0.0
19/09:00am 26.0 26.1 13.8 47 7.2 SSW 6 9 3 5 1017.5 1017.4 0.0
19/08:30am 23.7 24.0 14.4 56 5.5 SW 6 7 3 4 1017.5 - 0.0
19/08:00am 21.6 22.2 14.3 63 4.3 SW 4 7 2 4 1017.3 - 0.0
19/07:30am 18.9 20.2 14.0 73 2.8 CALM 0 0 0 0 1016.9 - 0.0
19/07:00am 16.9 17.4 12.8 77 2.3 SSE 2 9 1 5 1016.6 - 0.0
19/06:30am 15.5 15.1 12.4 82 1.7 WSW 6 7 3 4 1016.2 - 0.0
19/06:00am 15.7 15.3 12.3 80 1.9 WSW 6 7 3 4 1015.9 1015.8 0.0

Other Formats:

Comma delimited format used in spreadsheet applications
http://www.bom.gov.au/fwo/IDD60801/IDD60801.94239.axf

JavaScript Object Notation format (JSON) in row-major order
http://www.bom.gov.au/fwo/IDD60801/IDD60801.94239.json